createdAt,value
2023-03-30T00:01:43.223Z,13.66
2023-03-30T00:03:47.543Z,13.81
2023-03-30T00:05:52.359Z,13.85
2023-03-30T00:07:55.107Z,13.90
2023-03-30T00:10:02.822Z,13.89
2023-03-30T00:12:05.414Z,13.98
2023-03-30T00:14:08.029Z,14.17
2023-03-30T00:16:13.222Z,14.16
2023-03-30T00:18:15.835Z,14.19
2023-03-30T00:20:20.571Z,14.10
2023-03-30T00:22:24.467Z,14.05
2023-03-30T00:24:27.030Z,14.15
2023-03-30T00:26:29.621Z,14.11
2023-03-30T00:28:32.741Z,14.03
2023-03-30T00:30:36.983Z,13.93
2023-03-30T00:32:39.622Z,13.87
2023-03-30T00:34:42.414Z,13.80
2023-03-30T00:36:46.574Z,13.74
2023-03-30T00:38:50.534Z,13.69
2023-03-30T00:40:54.757Z,13.66
2023-03-30T00:42:59.796Z,13.62
2023-03-30T00:45:21.796Z,13.59
2023-03-30T00:47:24.373Z,13.56
2023-03-30T00:49:27.070Z,13.56
2023-03-30T00:51:29.818Z,13.55
2023-03-30T00:53:35.478Z,13.57
2023-03-30T00:55:41.688Z,13.58
2023-03-30T00:57:45.254Z,13.53
2023-03-30T00:59:48.225Z,13.50
2023-03-30T01:01:50.890Z,13.54
2023-03-30T01:03:53.831Z,13.54
2023-03-30T01:05:58.135Z,13.48
2023-03-30T01:08:01.078Z,13.43
2023-03-30T01:10:04.772Z,13.40
2023-03-30T01:12:08.937Z,13.40
2023-03-30T01:14:13.804Z,13.38
2023-03-30T01:16:29.164Z,13.39
2023-03-30T01:18:42.689Z,13.46
2023-03-30T01:21:29.934Z,13.45
2023-03-30T01:24:11.072Z,13.46
2023-03-30T01:26:35.135Z,13.44
2023-03-30T01:28:46.836Z,13.38
2023-03-30T01:31:13.073Z,13.35
2023-03-30T01:33:41.102Z,13.39
2023-03-30T01:36:25.370Z,13.42
2023-03-30T01:39:02.333Z,13.47
2023-03-30T01:41:13.993Z,13.43
2023-03-30T01:43:20.714Z,13.41
2023-03-30T01:45:31.651Z,13.42
2023-03-30T01:47:39.163Z,13.45
2023-03-30T01:49:47.046Z,13.40
2023-03-30T01:51:58.458Z,13.53
2023-03-30T01:54:06.883Z,13.56
2023-03-30T01:56:18.211Z,13.49
2023-03-30T01:58:27.599Z,13.65
2023-03-30T02:00:31.536Z,13.57
2023-03-30T02:02:35.759Z,13.47
2023-03-30T02:04:45.731Z,13.44
2023-03-30T02:06:52.879Z,13.44
2023-03-30T02:09:00.344Z,13.30
2023-03-30T02:11:03.262Z,13.22
2023-03-30T02:13:08.621Z,13.25
2023-03-30T02:15:15.349Z,13.26
2023-03-30T02:17:21.165Z,13.27
2023-03-30T02:19:23.731Z,13.16
2023-03-30T02:21:27.512Z,13.20
2023-03-30T02:23:35.395Z,13.18
2023-03-30T02:25:39.298Z,13.07
2023-03-30T02:27:42.766Z,13.01
2023-03-30T02:29:47.551Z,12.98
2023-03-30T02:31:54.228Z,12.96
2023-03-30T02:34:10.441Z,12.96
2023-03-30T02:36:29.001Z,12.92
2023-03-30T02:38:48.553Z,12.90
2023-03-30T02:40:59.321Z,13.03
2023-03-30T02:43:18.767Z,13.06
2023-03-30T02:45:34.788Z,13.11
2023-03-30T02:47:48.047Z,13.22
2023-03-30T02:49:56.011Z,13.33
2023-03-30T02:52:09.671Z,13.26
2023-03-30T02:54:24.496Z,13.31
2023-03-30T02:56:37.559Z,13.30
2023-03-30T02:58:43.743Z,13.41
2023-03-30T03:00:52.101Z,13.31
2023-03-30T03:02:59.038Z,13.29
2023-03-30T03:05:04.228Z,13.19
2023-03-30T03:07:06.842Z,13.24
2023-03-30T03:09:10.022Z,13.21
2023-03-30T03:11:12.912Z,13.25
2023-03-30T03:13:16.218Z,13.16
2023-03-30T03:15:18.979Z,13.13
2023-03-30T03:17:23.087Z,13.15
2023-03-30T03:19:25.639Z,13.09
2023-03-30T03:21:28.203Z,13.08
2023-03-30T03:23:30.770Z,13.06
2023-03-30T03:25:33.359Z,13.09
2023-03-30T03:27:36.508Z,13.19
2023-03-30T03:29:39.080Z,13.27
2023-03-30T03:31:41.683Z,13.14
2023-03-30T03:33:45.899Z,13.19
2023-03-30T03:35:48.528Z,13.08
2023-03-30T03:37:51.095Z,13.02
2023-03-30T03:39:53.655Z,13.03
2023-03-30T03:41:56.285Z,13.05
2023-03-30T03:43:58.823Z,13.04
2023-03-30T03:46:01.419Z,12.98
2023-03-30T03:48:08.314Z,12.91
2023-03-30T03:50:12.479Z,12.95
2023-03-30T03:52:15.329Z,12.93
2023-03-30T03:54:18.099Z,12.93
2023-03-30T03:56:20.666Z,12.97
2023-03-30T03:58:23.902Z,13.03
2023-03-30T04:00:26.780Z,12.97
2023-03-30T04:02:29.551Z,13.01
2023-03-30T04:04:32.299Z,13.05
2023-03-30T04:06:36.234Z,12.98
2023-03-30T04:08:38.901Z,13.02
2023-03-30T04:10:42.574Z,13.02
2023-03-30T04:12:45.150Z,12.99
2023-03-30T04:14:47.732Z,12.98
2023-03-30T04:16:51.365Z,12.94
2023-03-30T04:18:54.056Z,12.99
2023-03-30T04:20:57.048Z,12.93
2023-03-30T04:23:02.168Z,12.89
2023-03-30T04:25:07.015Z,12.83
2023-03-30T04:27:09.754Z,12.98
2023-03-30T04:29:12.295Z,12.90
2023-03-30T04:31:15.113Z,12.86
2023-03-30T04:33:18.026Z,12.86
2023-03-30T04:35:20.630Z,12.97
2023-03-30T04:37:30.096Z,13.22
2023-03-30T04:39:34.001Z,13.16
2023-03-30T04:41:36.570Z,13.11
2023-03-30T04:43:39.158Z,13.22
2023-03-30T04:45:42.197Z,13.25
2023-03-30T04:47:45.169Z,13.33
2023-03-30T04:49:47.761Z,13.34
2023-03-30T04:51:50.423Z,13.21
2023-03-30T04:53:56.279Z,13.34
2023-03-30T04:56:00.174Z,13.34
2023-03-30T04:58:03.013Z,13.19
2023-03-30T05:00:09.168Z,13.15
2023-03-30T05:02:13.634Z,13.26
2023-03-30T05:04:16.261Z,13.13
2023-03-30T05:06:18.864Z,13.14
2023-03-30T05:08:21.486Z,13.06
2023-03-30T05:10:26.142Z,13.02
2023-03-30T05:12:30.055Z,13.05
2023-03-30T05:14:32.614Z,13.22
2023-03-30T05:16:35.353Z,13.22
2023-03-30T05:18:38.835Z,13.20
2023-03-30T05:20:41.442Z,13.21
2023-03-30T05:22:44.297Z,13.11
2023-03-30T05:24:46.937Z,13.14
2023-03-30T05:26:49.478Z,13.10
2023-03-30T05:28:53.444Z,13.08
2023-03-30T05:30:56.783Z,13.06
2023-03-30T05:32:59.574Z,13.04
2023-03-30T05:35:02.352Z,13.11
2023-03-30T05:37:04.915Z,13.19
2023-03-30T05:39:07.561Z,13.17
2023-03-30T05:41:10.126Z,13.19
2023-03-30T05:43:12.795Z,13.33
2023-03-30T05:45:16.778Z,13.33
2023-03-30T05:47:19.362Z,13.47
2023-03-30T05:49:21.910Z,13.35
2023-03-30T05:51:24.714Z,13.25
2023-03-30T05:53:27.368Z,13.50
2023-03-30T05:55:30.026Z,13.53
2023-03-30T05:57:33.653Z,13.57
2023-03-30T05:59:37.216Z,13.68
2023-03-30T06:01:41.312Z,13.57
2023-03-30T06:03:44.069Z,13.68
2023-03-30T06:05:47.901Z,13.55
2023-03-30T06:07:50.557Z,13.58
2023-03-30T06:09:53.132Z,13.49
2023-03-30T06:11:55.754Z,13.51
2023-03-30T06:13:58.423Z,13.56
2023-03-30T06:16:03.036Z,13.66
2023-03-30T06:18:07.220Z,13.60
2023-03-30T06:20:12.395Z,13.85
2023-03-30T06:22:14.973Z,13.79
2023-03-30T06:24:18.715Z,13.64
2023-03-30T06:26:21.288Z,13.55
2023-03-30T06:28:23.911Z,13.48
2023-03-30T06:30:26.753Z,13.50
2023-03-30T06:32:29.551Z,13.40
2023-03-30T06:34:33.488Z,13.53
2023-03-30T06:36:44.986Z,13.42
2023-03-30T06:38:49.533Z,13.41
2023-03-30T06:40:52.093Z,13.28
2023-03-30T06:42:54.659Z,13.15
2023-03-30T06:44:57.215Z,13.09
2023-03-30T06:46:59.828Z,13.06
2023-03-30T06:49:02.801Z,13.02
2023-03-30T06:51:07.654Z,13.00
2023-03-30T06:53:10.275Z,12.96
2023-03-30T06:55:13.030Z,12.94
2023-03-30T06:57:15.664Z,12.92
2023-03-30T06:59:18.416Z,12.91
2023-03-30T07:01:21.092Z,12.90
2023-03-30T07:03:23.918Z,12.91
2023-03-30T07:05:28.571Z,12.89
2023-03-30T07:07:32.557Z,12.89
2023-03-30T07:09:35.137Z,12.89
2023-03-30T07:11:37.676Z,12.91
2023-03-30T07:13:40.302Z,12.88
2023-03-30T07:15:42.952Z,12.93
2023-03-30T07:17:46.067Z,13.00
2023-03-30T07:19:48.716Z,13.00
2023-03-30T07:21:51.267Z,12.96
2023-03-30T07:23:55.819Z,13.01
2023-03-30T07:25:58.454Z,13.16
2023-03-30T07:28:02.153Z,13.33
2023-03-30T07:30:17.975Z,13.43
2023-03-30T07:32:25.117Z,13.59
2023-03-30T07:34:27.768Z,13.67
2023-03-30T07:36:30.339Z,13.54
2023-03-30T07:38:33.311Z,13.63
2023-03-30T07:40:37.259Z,13.66
2023-03-30T07:42:40.006Z,13.51
2023-03-30T07:44:42.567Z,13.42
2023-03-30T07:46:45.524Z,13.46
2023-03-30T07:48:48.131Z,13.39
2023-03-30T07:50:50.760Z,13.33
2023-03-30T07:52:53.494Z,13.31
2023-03-30T07:54:56.814Z,13.34
2023-03-30T07:57:00.851Z,13.38
2023-03-30T07:59:04.424Z,13.47
2023-03-30T08:01:07.157Z,13.55
2023-03-30T08:03:10.075Z,13.55
2023-03-30T08:05:13.005Z,13.74
2023-03-30T08:07:16.558Z,13.78
2023-03-30T08:09:19.362Z,13.77
2023-03-30T08:11:22.072Z,13.84
2023-03-30T08:13:27.188Z,13.68
2023-03-30T08:15:29.770Z,13.65
2023-03-30T08:17:32.390Z,13.63
2023-03-30T08:19:35.012Z,13.67
2023-03-30T08:21:37.740Z,13.62
2023-03-30T08:23:40.306Z,13.77
2023-03-30T08:25:44.653Z,13.79
2023-03-30T08:27:48.521Z,13.71
2023-03-30T08:29:54.234Z,13.75
2023-03-30T08:31:56.986Z,13.67
2023-03-30T08:33:59.704Z,13.62
2023-03-30T08:36:02.333Z,13.59
2023-03-30T08:38:04.921Z,13.59
2023-03-30T08:40:10.951Z,13.66
2023-03-30T08:42:26.869Z,13.65
2023-03-30T08:44:35.048Z,13.44
2023-03-30T08:46:40.688Z,13.39
2023-03-30T08:48:44.514Z,13.35
2023-03-30T08:50:53.527Z,13.35
2023-03-30T08:52:56.170Z,13.31
2023-03-30T08:54:58.996Z,13.32
2023-03-30T08:57:09.176Z,13.30
2023-03-30T08:59:24.298Z,13.30
2023-03-30T09:01:34.664Z,13.25
2023-03-30T09:03:43.809Z,13.20
2023-03-30T09:05:52.609Z,13.40
2023-03-30T09:08:03.830Z,13.27
2023-03-30T09:10:13.090Z,13.29
2023-03-30T09:12:22.868Z,13.30
2023-03-30T09:14:33.025Z,13.22
2023-03-30T09:16:43.653Z,13.17
2023-03-30T09:18:52.224Z,13.19
2023-03-30T09:20:58.425Z,13.18
2023-03-30T09:23:02.931Z,13.18
2023-03-30T09:25:14.748Z,13.19
2023-03-30T09:27:22.002Z,13.29
2023-03-30T09:29:29.421Z,13.21
2023-03-30T09:31:39.961Z,13.25
2023-03-30T09:33:46.995Z,13.11
2023-03-30T09:36:05.105Z,13.13
2023-03-30T09:38:11.875Z,13.17
2023-03-30T09:40:27.582Z,13.04
2023-03-30T09:42:39.220Z,13.06
2023-03-30T09:44:48.172Z,13.09
2023-03-30T09:46:56.656Z,12.92
2023-03-30T09:49:14.378Z,12.92
2023-03-30T09:51:21.505Z,13.02
2023-03-30T09:53:26.243Z,12.98
2023-03-30T09:55:31.216Z,13.05
2023-03-30T09:57:34.126Z,13.10
2023-03-30T09:59:38.850Z,13.11
2023-03-30T10:01:42.517Z,13.11
2023-03-30T10:03:49.929Z,13.17
2023-03-30T10:06:03.914Z,13.09
2023-03-30T10:08:24.424Z,13.17
2023-03-30T10:10:35.949Z,13.18
2023-03-30T10:12:38.641Z,13.20
2023-03-30T10:14:41.518Z,13.33
2023-03-30T10:16:45.108Z,13.32
2023-03-30T10:18:47.842Z,13.23
2023-03-30T10:20:52.978Z,13.22
2023-03-30T10:22:57.223Z,13.20
2023-03-30T10:25:13.211Z,13.38
2023-03-30T10:27:15.866Z,13.25
2023-03-30T10:29:21.164Z,13.25
2023-03-30T10:31:27.933Z,13.34
2023-03-30T10:33:32.174Z,13.25
2023-03-30T10:35:38.194Z,13.30
2023-03-30T10:37:46.310Z,13.23
2023-03-30T10:39:50.369Z,13.22
2023-03-30T10:41:57.945Z,13.23
2023-03-30T10:44:11.667Z,13.52
2023-03-30T10:46:19.798Z,13.44
2023-03-30T10:48:45.768Z,13.44
2023-03-30T10:50:57.337Z,13.49
2023-03-30T10:53:14.026Z,13.50
2023-03-30T10:55:22.044Z,13.50
2023-03-30T10:57:41.511Z,13.45
2023-03-30T11:00:11.750Z,13.41
2023-03-30T11:02:30.541Z,13.39
2023-03-30T11:04:37.130Z,13.69
2023-03-30T11:06:42.814Z,13.49
2023-03-30T11:08:48.483Z,13.76
2023-03-30T11:10:54.508Z,13.74
2023-03-30T11:13:02.977Z,13.70
2023-03-30T11:15:10.796Z,13.52
2023-03-30T11:17:21.183Z,13.76
2023-03-30T11:19:26.983Z,13.76
2023-03-30T11:21:35.416Z,13.57
2023-03-30T11:23:46.121Z,13.69
2023-03-30T11:25:57.692Z,13.61
2023-03-30T11:28:12.947Z,13.65
2023-03-30T11:30:20.277Z,13.74
2023-03-30T11:32:31.172Z,13.86
2023-03-30T11:34:44.969Z,13.94
2023-03-30T11:36:56.005Z,14.02
2023-03-30T11:39:04.831Z,14.06
2023-03-30T11:41:14.304Z,13.94
2023-03-30T11:43:21.391Z,14.14
2023-03-30T11:45:42.223Z,14.05
2023-03-30T11:47:57.666Z,13.95
2023-03-30T11:50:16.677Z,14.30
2023-03-30T11:52:30.333Z,14.24
2023-03-30T11:54:59.800Z,14.10
2023-03-30T11:57:17.251Z,14.04
2023-03-30T11:59:29.432Z,14.16
2023-03-30T12:01:46.245Z,14.08
2023-03-30T12:03:53.594Z,14.14
2023-03-30T12:06:01.465Z,14.10
2023-03-30T12:08:14.810Z,14.19
2023-03-30T12:10:21.864Z,14.21
2023-03-30T12:12:32.739Z,14.15
2023-03-30T12:14:53.749Z,14.17
2023-03-30T12:17:00.409Z,14.14
2023-03-30T12:19:13.535Z,14.18
2023-03-30T12:21:27.453Z,14.15
2023-03-30T12:23:39.272Z,14.33
2023-03-30T12:25:48.541Z,14.32
2023-03-30T12:27:59.822Z,14.25
2023-03-30T12:30:24.467Z,14.27
2023-03-30T12:32:29.200Z,14.28
2023-03-30T12:34:34.818Z,14.32
2023-03-30T12:36:40.863Z,14.37
2023-03-30T12:38:48.099Z,14.23
2023-03-30T12:40:57.203Z,14.30
2023-03-30T12:43:08.643Z,14.27
2023-03-30T12:45:26.033Z,14.29
2023-03-30T12:47:53.446Z,14.35
2023-03-30T12:50:12.552Z,14.39
2023-03-30T12:52:23.634Z,14.52
2023-03-30T12:54:43.006Z,14.50
2023-03-30T12:56:57.246Z,14.57
2023-03-30T12:59:36.148Z,14.74
2023-03-30T13:01:51.969Z,14.98
2023-03-30T13:03:56.811Z,15.18
2023-03-30T13:06:02.353Z,15.17
2023-03-30T13:08:07.445Z,15.26
2023-03-30T13:10:48.456Z,15.50
2023-03-30T13:12:51.402Z,15.78
2023-03-30T13:15:00.290Z,15.93
2023-03-30T13:17:16.612Z,16.03
2023-03-30T13:19:27.576Z,16.25
2023-03-30T13:21:47.772Z,16.45
2023-03-30T13:24:19.436Z,16.63
2023-03-30T13:26:34.501Z,16.97
2023-03-30T13:28:58.233Z,17.36
2023-03-30T13:31:10.685Z,17.63
2023-03-30T13:33:21.817Z,17.86
2023-03-30T13:35:35.722Z,18.04
2023-03-30T13:38:07.689Z,18.11
2023-03-30T13:40:27.339Z,18.34
2023-03-30T13:42:50.455Z,18.65
2023-03-30T13:45:02.100Z,18.90
2023-03-30T13:47:13.097Z,19.08
2023-03-30T13:49:26.505Z,19.33
2023-03-30T13:51:30.245Z,19.52
2023-03-30T13:53:39.747Z,19.78
2023-03-30T13:55:45.296Z,19.83
2023-03-30T13:57:48.164Z,19.86
2023-03-30T13:59:53.768Z,19.90
2023-03-30T14:01:59.513Z,19.88
2023-03-30T14:04:03.808Z,19.88
2023-03-30T14:06:16.067Z,19.74
2023-03-30T14:08:19.455Z,19.67
2023-03-30T14:10:22.232Z,19.50
2023-03-30T14:12:24.887Z,19.52
2023-03-30T14:14:35.880Z,19.79
2023-03-30T14:16:41.175Z,19.67
2023-03-30T14:18:43.878Z,19.47
2023-03-30T14:20:49.200Z,19.27
2023-03-30T14:22:56.573Z,18.96
2023-03-30T14:25:01.284Z,18.84
2023-03-30T14:27:06.673Z,18.92
2023-03-30T14:29:24.605Z,18.99
2023-03-30T14:31:39.866Z,19.01
2023-03-30T14:33:42.807Z,18.95
2023-03-30T14:35:49.303Z,18.77
2023-03-30T14:37:53.722Z,18.55
2023-03-30T14:39:59.143Z,18.36
2023-03-30T14:42:11.025Z,18.31
2023-03-30T14:44:23.556Z,18.13
2023-03-30T14:46:32.098Z,17.96
2023-03-30T14:48:37.397Z,17.85
2023-03-30T14:50:40.063Z,17.90
2023-03-30T14:52:44.544Z,17.79
2023-03-30T14:55:04.291Z,17.70
2023-03-30T14:57:12.221Z,17.59
2023-03-30T14:59:19.060Z,17.39
2023-03-30T15:01:30.852Z,17.28
2023-03-30T15:03:37.379Z,17.23
2023-03-30T15:05:42.592Z,17.11
2023-03-30T15:07:49.000Z,16.93
2023-03-30T15:09:57.292Z,16.77
2023-03-30T15:12:02.055Z,16.83
2023-03-30T15:14:09.639Z,16.86
2023-03-30T15:16:17.509Z,16.69
2023-03-30T15:18:25.288Z,16.53
2023-03-30T15:20:30.664Z,16.40
2023-03-30T15:22:35.644Z,16.30
2023-03-30T15:24:40.560Z,16.13
2023-03-30T15:26:48.718Z,16.07
2023-03-30T15:28:54.842Z,16.07
2023-03-30T15:30:59.297Z,16.18
2023-03-30T15:33:02.398Z,16.05
2023-03-30T15:35:20.722Z,16.07
2023-03-30T15:37:23.885Z,16.09
2023-03-30T15:39:33.811Z,16.04
2023-03-30T15:41:48.384Z,16.05
2023-03-30T15:43:57.105Z,16.03
2023-03-30T15:46:03.044Z,15.93
2023-03-30T15:48:06.981Z,15.86
2023-03-30T15:50:13.710Z,15.84
2023-03-30T15:52:20.911Z,15.89
2023-03-30T15:54:31.207Z,15.88
2023-03-30T15:56:38.075Z,15.87
2023-03-30T15:58:43.423Z,15.85
2023-03-30T16:00:46.100Z,15.80
2023-03-30T16:02:52.930Z,15.78
2023-03-30T16:04:55.771Z,15.78
2023-03-30T16:06:58.475Z,15.59
2023-03-30T16:09:01.047Z,15.44
2023-03-30T16:11:04.441Z,15.62
2023-03-30T16:13:08.088Z,15.65
2023-03-30T16:15:14.478Z,15.87
2023-03-30T16:17:17.114Z,15.74
2023-03-30T16:19:25.367Z,15.91
2023-03-30T16:21:27.944Z,15.79
2023-03-30T16:23:30.603Z,15.77
2023-03-30T16:25:44.323Z,15.74
2023-03-30T16:27:47.995Z,15.89
2023-03-30T16:29:50.549Z,15.77
2023-03-30T16:31:55.577Z,15.71
2023-03-30T16:33:58.148Z,15.85
2023-03-30T16:36:00.841Z,15.80
2023-03-30T16:38:03.570Z,15.97
2023-03-30T16:40:18.332Z,15.87
2023-03-30T16:42:20.887Z,16.02
2023-03-30T16:44:25.414Z,15.81
2023-03-30T16:46:27.993Z,15.70
2023-03-30T16:48:31.890Z,15.98
2023-03-30T16:50:38.307Z,15.77
2023-03-30T16:52:40.966Z,15.78
2023-03-30T16:54:43.628Z,15.65
2023-03-30T16:56:46.327Z,15.65
2023-03-30T16:58:48.933Z,15.54
2023-03-30T17:00:53.254Z,15.58
2023-03-30T17:02:55.944Z,15.51
2023-03-30T17:04:59.893Z,15.29
2023-03-30T17:07:02.575Z,15.29
2023-03-30T17:09:05.200Z,15.34
2023-03-30T17:11:10.208Z,15.34
2023-03-30T17:13:12.774Z,15.24
2023-03-30T17:15:15.432Z,15.34
2023-03-30T17:17:18.329Z,15.14
2023-03-30T17:19:20.933Z,15.27
2023-03-30T17:21:24.830Z,14.99
2023-03-30T17:23:29.094Z,14.84
2023-03-30T17:25:31.695Z,14.86
2023-03-30T17:27:34.712Z,14.77
2023-03-30T17:29:37.286Z,14.81
2023-03-30T17:31:45.273Z,14.76
2023-03-30T17:33:48.666Z,14.76
2023-03-30T17:35:54.995Z,14.65
2023-03-30T17:37:59.733Z,14.77
2023-03-30T17:40:02.296Z,14.85
2023-03-30T17:42:05.314Z,14.65
2023-03-30T17:44:07.885Z,14.61
2023-03-30T17:46:12.223Z,14.53
2023-03-30T17:48:17.474Z,14.50
2023-03-30T17:50:23.841Z,14.52
2023-03-30T17:52:30.295Z,14.42
2023-03-30T17:54:34.361Z,14.41
2023-03-30T17:56:36.913Z,14.33
2023-03-30T17:58:39.716Z,14.27
2023-03-30T18:00:42.294Z,14.27
2023-03-30T18:02:44.936Z,14.25
2023-03-30T18:04:47.521Z,14.23
2023-03-30T18:06:50.140Z,14.21
2023-03-30T18:08:55.637Z,14.24
2023-03-30T18:11:01.908Z,14.18
2023-03-30T18:13:05.897Z,14.08
2023-03-30T18:15:08.928Z,14.05
2023-03-30T18:17:12.834Z,14.13
2023-03-30T18:19:15.377Z,14.02
2023-03-30T18:21:18.011Z,13.94
2023-03-30T18:23:21.341Z,14.04
2023-03-30T18:25:32.045Z,13.92
2023-03-30T18:27:37.476Z,13.89
2023-03-30T18:29:40.183Z,13.91
2023-03-30T18:31:42.778Z,13.93
2023-03-30T18:33:45.394Z,13.90
2023-03-30T18:35:50.328Z,13.89
2023-03-30T18:37:54.103Z,13.81
2023-03-30T18:39:56.653Z,13.86
2023-03-30T18:42:00.231Z,13.85
2023-03-30T18:44:04.159Z,13.80
2023-03-30T18:46:07.165Z,13.80
2023-03-30T18:48:13.701Z,13.83
2023-03-30T18:50:20.247Z,13.75
2023-03-30T18:52:22.810Z,13.75
2023-03-30T18:54:26.162Z,13.70
2023-03-30T18:56:28.737Z,13.65
2023-03-30T18:58:33.546Z,13.80
2023-03-30T19:00:37.717Z,13.75
2023-03-30T19:02:40.439Z,13.87
2023-03-30T19:04:43.059Z,13.68
2023-03-30T19:06:46.214Z,13.66
2023-03-30T19:08:48.866Z,13.57
2023-03-30T19:10:54.823Z,13.52
2023-03-30T19:12:58.109Z,13.55
2023-03-30T19:15:00.816Z,13.44
2023-03-30T19:17:04.762Z,13.53
2023-03-30T19:19:09.960Z,13.40
2023-03-30T19:21:16.463Z,13.34
2023-03-30T19:23:21.490Z,13.27
2023-03-30T19:25:25.577Z,13.24
2023-03-30T19:27:28.290Z,13.27
2023-03-30T19:29:30.883Z,13.20
2023-03-30T19:31:36.149Z,13.17
2023-03-30T19:33:41.108Z,13.18
2023-03-30T19:35:45.064Z,13.17
2023-03-30T19:37:47.687Z,13.06
2023-03-30T19:39:50.399Z,13.01
2023-03-30T19:41:53.009Z,13.10
2023-03-30T19:43:55.578Z,13.00
2023-03-30T19:45:58.271Z,12.95
2023-03-30T19:48:01.033Z,12.92
2023-03-30T19:50:11.208Z,12.85
2023-03-30T19:52:13.789Z,12.81
2023-03-30T19:54:16.337Z,12.78
2023-03-30T19:56:18.958Z,12.77
2023-03-30T19:58:21.507Z,12.72
2023-03-30T20:00:24.373Z,12.68
2023-03-30T20:02:27.006Z,12.65
2023-03-30T20:04:29.608Z,12.64
2023-03-30T20:06:35.837Z,12.63
2023-03-30T20:08:38.411Z,12.69
2023-03-30T20:10:41.139Z,12.73
2023-03-30T20:12:43.702Z,12.89
2023-03-30T20:14:46.597Z,12.80
2023-03-30T20:16:49.788Z,12.77
2023-03-30T20:18:56.992Z,12.71
2023-03-30T20:21:03.215Z,12.70
2023-03-30T20:23:07.431Z,12.78
2023-03-30T20:25:12.356Z,12.97
2023-03-30T20:27:14.901Z,12.92
2023-03-30T20:29:17.595Z,12.79
2023-03-30T20:31:20.207Z,12.75
2023-03-30T20:33:22.838Z,12.88
2023-03-30T20:35:25.738Z,12.94
2023-03-30T20:37:28.416Z,12.91
2023-03-30T20:39:34.231Z,12.89
2023-03-30T20:41:38.948Z,12.85
2023-03-30T20:43:56.461Z,12.87
2023-03-30T20:46:03.023Z,12.86
2023-03-30T20:48:25.915Z,12.77
2023-03-30T20:50:28.692Z,12.68
2023-03-30T20:52:31.419Z,12.60
2023-03-30T20:54:36.415Z,12.63
2023-03-30T20:56:39.416Z,12.74
2023-03-30T20:58:42.301Z,12.71
2023-03-30T21:00:44.849Z,12.64
2023-03-30T21:02:47.529Z,12.58
2023-03-30T21:04:50.595Z,12.57
2023-03-30T21:06:53.627Z,12.59
2023-03-30T21:08:59.088Z,12.72
2023-03-30T21:11:04.074Z,12.72
2023-03-30T21:13:06.816Z,12.80
2023-03-30T21:15:10.430Z,12.69
2023-03-30T21:17:13.653Z,12.63
2023-03-30T21:19:16.386Z,12.69
2023-03-30T21:21:19.551Z,12.74
2023-03-30T21:23:25.218Z,12.65
2023-03-30T21:25:29.447Z,12.63
2023-03-30T21:27:33.435Z,12.61
2023-03-30T21:29:36.038Z,12.66
2023-03-30T21:31:38.636Z,12.67
2023-03-30T21:33:41.608Z,12.72
2023-03-30T21:35:44.157Z,12.70
2023-03-30T21:37:46.724Z,12.66
2023-03-30T21:39:49.320Z,12.72
2023-03-30T21:41:51.880Z,12.60
2023-03-30T21:43:55.891Z,12.63
2023-03-30T21:46:00.022Z,12.58
2023-03-30T21:48:02.656Z,12.63
2023-03-30T21:50:06.345Z,12.62
2023-03-30T21:52:08.911Z,12.70
2023-03-30T21:54:12.379Z,12.70
2023-03-30T21:56:16.346Z,12.71
2023-03-30T21:58:18.949Z,12.54
2023-03-30T22:00:22.916Z,12.51
2023-03-30T22:02:25.815Z,12.61
2023-03-30T22:04:28.424Z,12.55
2023-03-30T22:06:31.161Z,12.50
2023-03-30T22:08:34.039Z,12.59
2023-03-30T22:10:36.788Z,12.50
2023-03-30T22:12:39.372Z,12.50
2023-03-30T22:14:41.922Z,12.54
2023-03-30T22:16:46.829Z,12.66
2023-03-30T22:18:49.786Z,12.69
2023-03-30T22:20:52.636Z,12.67
2023-03-30T22:22:56.524Z,12.60
2023-03-30T22:24:59.103Z,12.57
2023-03-30T22:27:01.706Z,12.53
2023-03-30T22:29:04.839Z,12.50
2023-03-30T22:31:08.204Z,12.51
2023-03-30T22:33:12.984Z,12.59
2023-03-30T22:35:15.743Z,12.57
2023-03-30T22:37:18.496Z,12.67
2023-03-30T22:39:21.088Z,12.68
2023-03-30T22:41:24.560Z,12.56
2023-03-30T22:43:27.155Z,12.53
2023-03-30T22:45:29.971Z,12.53
2023-03-30T22:47:32.552Z,12.45
2023-03-30T22:49:36.870Z,12.53
2023-03-30T22:51:46.005Z,12.60
2023-03-30T22:53:48.561Z,12.52
2023-03-30T22:55:51.121Z,12.59
2023-03-30T22:57:54.648Z,12.50
2023-03-30T22:59:57.231Z,12.53
2023-03-30T23:01:59.784Z,12.49
2023-03-30T23:04:06.223Z,12.49
2023-03-30T23:06:10.118Z,12.49
2023-03-30T23:08:12.709Z,12.49
2023-03-30T23:10:20.118Z,12.48
2023-03-30T23:12:22.677Z,12.47
2023-03-30T23:14:26.658Z,12.54
2023-03-30T23:16:29.261Z,12.45
2023-03-30T23:18:31.848Z,12.45
2023-03-30T23:20:34.385Z,12.42
2023-03-30T23:22:38.611Z,12.38
2023-03-30T23:24:41.143Z,12.37
2023-03-30T23:26:43.704Z,12.32
2023-03-30T23:28:46.249Z,12.26
2023-03-30T23:30:48.867Z,12.22
2023-03-30T23:32:51.555Z,12.20
2023-03-30T23:34:54.234Z,12.18
2023-03-30T23:36:59.543Z,12.18
2023-03-30T23:39:03.557Z,12.17
2023-03-30T23:41:07.620Z,12.19
2023-03-30T23:43:10.364Z,12.25
2023-03-30T23:45:12.917Z,12.28
2023-03-30T23:47:16.275Z,12.24
2023-03-30T23:49:19.110Z,12.17
2023-03-30T23:51:21.696Z,12.16
2023-03-30T23:53:26.278Z,12.11
2023-03-30T23:55:30.291Z,12.08
2023-03-30T23:57:32.888Z,12.10
2023-03-30T23:59:35.635Z,12.03
